< Cyclone 198003 1980 Season Cyclone 198005 >
Cyclone 198004 (PAUL)
General InformationTrack Information on Google MapsDetailed Wind Information || ResourceGoogle EarthGE AnimationAtom FeedGeoJSON
Detalied Best Track (Time Zone = UTC)
Year Month Day Hour Lat. Long. Pressure (hPa) Wind (kt) Class Image Chart
1980 1 2 18 -14.8 136.6 1000 25 2 -- --
1980 1 3 00 -15.0 137.0 1001 25 2 -- --
1980 1 3 06 -15.3 137.5 999 30 2 -- --
1980 1 3 12 -15.9 137.9 1000 30 2 -- --
1980 1 3 18 -16.6 138.1 997 30 2 -- --
1980 1 4 00 -17.2 138.4 998 30 2 -- --
1980 1 4 06 -17.9 138.7 997 20 2 -- --
1980 1 4 12 -18.3 139.0 998 20 2 -- --
1980 1 4 18 -18.7 139.4 997 20 2 -- --
1980 1 5 00 -18.9 140.0 997 20 2 -- --
1980 1 5 06 -18.7 140.7 995 25 2 -- --
1980 1 5 12 -18.6 141.4 995 20 2 -- --
1980 1 5 18 -18.6 142.1 995 20 2 -- --
1980 1 6 00 -18.7 142.8 996 20 2 -- --
1980 1 6 06 -18.9 143.7 995 20 2 -- --
1980 1 6 12 -19.5 145.6 996 20 2 -- --
1980 1 6 18 -20.3 147.5 995 25 2 -- --
1980 1 7 00 -21.5 149.2 995 30 2 -- --
1980 1 7 06 -22.6 151.3 992 40 3 -- --
1980 1 7 12 -23.3 153.6 993 40 3 -- --
1980 1 7 18 -24.7 155.6 989 45 3 -- --
1980 1 8 00 -26.2 157.1 992 45 3 -- --
1980 1 8 06 -28.0 158.5 994 45 3 -- --
1980 1 8 12 -30.2 159.7 990 45 3 -- --
1980 1 8 18 -31.3 160.2 983 50 4 -- --
< Cyclone 198003 1980 Season Cyclone 198005 >

Help